Airfield :
LOGIN :

Register | Disclaimer

   EN    FR    IT 

 










Legend :    VFR   Marginal VFR   IFR   Intensive IFR   Very Intensive IFR
Visi :
Ceiling :
>= 8 km
>= 3000ft
5 to 8 km
1000 to 3000 ft
1500m to 5 km
500 to 1000 ft
800 to 1500m
200 to 500 ft
< 800m
< 200 ft
Symbols :   Thunderstorms  Fog  Heavy snow  Heavy precipitations  Wind > 20 kt
SIGMETs :     Misc.  Thunderstorms  Icing  Turbulence  Mountain Waves  Volcanic Ashes







- Airport Elevation : 412 ft
- IATA code : ORE
- Download approach charts


LFOJ - Orleans

CURRENT METAR :
  • 161430Z AUTO 35007KT 310V040 CAVOK 28/04 Q1019 NOSIG

EXPIRED METARs :
  • 161400Z AUTO 35005KT 290V050 CAVOK 28/05 Q1020 NOSIG
  • 161330Z AUTO 34007KT 290V030 CAVOK 28/08 Q1020 NOSIG
  • 161300Z AUTO 36008KT 320V080 CAVOK 27/09 Q1020 NOSIG
  • 161230Z AUTO 01006KT 310V090 CAVOK 27/10 Q1020 NOSIG
  • 161200Z AUTO 34008KT 300V040 CAVOK 27/11 Q1021 NOSIG

TAF TAF LFOJ
Valid from the 16 at 15:00 until the 17 at 15:00 UTC


161400Z 1615/1715 34007KT CAVOK
PROB40
TEMPO 1703/1707 3000 BR BKN005
TEMPO 1707/1709 BKN010
No reported NOTAMs for that airfield.



MET'MAP, your aeronautical weather chart ! - Copyright ORBIFLY December 2007 - Disclaimer

ORBIFLY MET'MAP TEAM :

Programming & Development : Alexandra Zaïnal
Concept & Development : Baudouin d'Aumeries
Co-Development & Prog : Marc-Olivier Méhu
Technical & hardware support : Manuel Goepfert

Contact : metmap@orbifly.com




SOURCES & CREDITS :

   NOAA